createdAt,value
2019-02-23T00:00:47.975Z,15.63
2019-02-23T00:03:19.009Z,16.77
2019-02-23T00:05:48.523Z,17.00
2019-02-23T00:08:17.948Z,17.23
2019-02-23T00:10:47.340Z,17.47
2019-02-23T00:13:16.867Z,19.73
2019-02-23T00:15:46.292Z,20.07
2019-02-23T00:18:15.678Z,17.90
2019-02-23T00:20:45.094Z,18.43
2019-02-23T00:23:14.499Z,19.63
2019-02-23T00:25:43.852Z,22.00
2019-02-23T00:28:13.247Z,21.27
2019-02-23T00:30:42.602Z,22.37
2019-02-23T00:33:11.994Z,23.13
2019-02-23T00:35:41.351Z,24.57
2019-02-23T00:38:10.749Z,26.63
2019-02-23T00:40:40.247Z,27.63
2019-02-23T00:43:09.627Z,30.73
2019-02-23T00:45:39.130Z,29.50
2019-02-23T00:48:08.648Z,35.50
2019-02-23T00:50:38.075Z,38.40
2019-02-23T00:53:07.683Z,39.53
2019-02-23T00:55:37.142Z,40.63
2019-02-23T00:58:06.843Z,44.33
2019-02-23T01:00:36.266Z,47.20
2019-02-23T01:03:05.660Z,49.37
2019-02-23T01:05:35.043Z,47.23
2019-02-23T01:08:04.631Z,51.40
2019-02-23T01:10:34.171Z,51.00
2019-02-23T01:13:03.557Z,50.77
2019-02-23T01:15:33.653Z,53.87
2019-02-23T01:18:03.599Z,53.07
2019-02-23T01:20:33.055Z,59.97
2019-02-23T01:23:02.650Z,56.83
2019-02-23T01:25:32.182Z,58.70
2019-02-23T01:28:01.576Z,54.30
2019-02-23T01:30:31.237Z,57.80
2019-02-23T01:33:00.631Z,60.90
2019-02-23T01:35:30.027Z,57.03
2019-02-23T01:37:59.500Z,56.97
2019-02-23T01:40:28.925Z,59.30
2019-02-23T01:42:58.411Z,57.53
2019-02-23T01:45:27.935Z,61.10
2019-02-23T01:47:57.435Z,63.73
2019-02-23T01:50:26.793Z,62.57
2019-02-23T01:52:56.189Z,64.63
2019-02-23T01:55:25.870Z,58.93
2019-02-23T01:57:55.317Z,62.17
2019-02-23T02:00:25.617Z,63.67
2019-02-23T02:02:55.258Z,60.97
2019-02-23T02:05:25.280Z,64.43
2019-02-23T02:07:55.238Z,66.30
2019-02-23T02:10:24.886Z,68.20
2019-02-23T02:13:13.811Z,66.43
2019-02-23T02:15:43.322Z,72.50
2019-02-23T02:18:12.709Z,72.30
2019-02-23T02:20:42.328Z,70.17
2019-02-23T02:23:11.762Z,67.97
2019-02-23T02:25:41.117Z,68.43
2019-02-23T02:28:10.593Z,73.87
2019-02-23T02:30:40.189Z,75.40
2019-02-23T02:33:09.617Z,78.07
2019-02-23T02:35:39.082Z,76.00
2019-02-23T02:38:08.545Z,76.97
2019-02-23T02:40:38.097Z,71.73
2019-02-23T02:43:07.500Z,78.07
2019-02-23T02:45:36.970Z,74.33
2019-02-23T02:48:06.716Z,71.83
2019-02-23T02:50:36.115Z,72.90
2019-02-23T02:53:24.960Z,78.23
2019-02-23T02:55:54.362Z,75.93
2019-02-23T02:58:43.146Z,80.30
2019-02-23T03:01:12.628Z,82.73
2019-02-23T03:03:42.058Z,84.77
2019-02-23T03:06:11.588Z,88.63
2019-02-23T03:08:40.943Z,89.53
2019-02-23T03:11:10.741Z,82.70
2019-02-23T03:13:40.241Z,91.57
2019-02-23T03:16:10.466Z,83.97
2019-02-23T03:18:39.820Z,92.50
2019-02-23T03:21:09.813Z,90.37
2019-02-23T03:23:39.342Z,99.20
2019-02-23T03:26:08.954Z,96.87
2019-02-23T03:28:38.347Z,94.37
2019-02-23T03:31:07.780Z,92.73
2019-02-23T03:33:37.168Z,91.30
2019-02-23T03:36:06.976Z,96.27
2019-02-23T03:38:36.372Z,93.53
2019-02-23T03:41:05.823Z,95.23
2019-02-23T03:43:35.314Z,93.50
2019-02-23T03:46:04.861Z,94.07
2019-02-23T03:48:34.476Z,98.30
2019-02-23T03:51:03.878Z,102.03
2019-02-23T03:53:33.514Z,101.70
2019-02-23T03:56:03.069Z,96.17
2019-02-23T03:58:32.515Z,97.40
2019-02-23T04:01:01.994Z,100.93
2019-02-23T04:03:31.421Z,99.17
2019-02-23T04:06:02.161Z,95.90
2019-02-23T04:08:31.636Z,96.67
2019-02-23T04:11:01.021Z,94.97
2019-02-23T04:13:30.503Z,95.30
2019-02-23T04:16:00.097Z,96.57
2019-02-23T04:18:29.587Z,97.77
2019-02-23T04:21:02.095Z,101.43
2019-02-23T04:23:31.704Z,99.20
2019-02-23T04:26:01.175Z,100.63
2019-02-23T04:28:30.571Z,95.73
2019-02-23T04:30:59.967Z,97.67
2019-02-23T04:33:29.807Z,100.50
2019-02-23T04:35:59.436Z,98.63
2019-02-23T04:38:29.077Z,97.00
2019-02-23T04:40:58.984Z,99.87
2019-02-23T04:43:28.515Z,96.83
2019-02-23T04:45:57.913Z,106.03
2019-02-23T04:48:28.952Z,101.40
2019-02-23T04:50:58.413Z,101.63
2019-02-23T04:53:27.807Z,105.60
2019-02-23T04:55:57.266Z,99.20
2019-02-23T04:58:26.727Z,100.93
2019-02-23T05:00:56.356Z,94.23
2019-02-23T05:03:38.859Z,101.27
2019-02-23T05:06:08.308Z,107.70
2019-02-23T05:08:38.458Z,106.50
2019-02-23T05:11:07.888Z,107.80
2019-02-23T05:13:37.286Z,109.03
2019-02-23T05:16:06.791Z,115.37
2019-02-23T05:18:36.275Z,108.53
2019-02-23T05:21:05.842Z,123.23
2019-02-23T05:23:35.309Z,124.27
2019-02-23T05:26:04.810Z,147.97
2019-02-23T05:28:34.429Z,175.67
2019-02-23T05:31:03.785Z,201.90
2019-02-23T05:33:33.189Z,232.23
2019-02-23T05:36:02.544Z,181.07
2019-02-23T05:38:31.930Z,194.67
2019-02-23T05:41:01.302Z,255.83
2019-02-23T05:43:30.762Z,314.33
2019-02-23T05:46:00.129Z,411.13
2019-02-23T05:48:29.551Z,367.47
2019-02-23T05:50:58.919Z,293.07
2019-02-23T05:53:28.388Z,417.20
2019-02-23T05:55:57.750Z,369.07
2019-02-23T05:58:46.870Z,385.30
2019-02-23T06:01:16.363Z,358.57
2019-02-23T06:03:45.959Z,478.83
2019-02-23T06:06:16.019Z,615.80
2019-02-23T06:08:46.973Z,453.60
2019-02-23T06:11:16.496Z,477.87
2019-02-23T06:13:46.956Z,497.23
2019-02-23T06:16:16.376Z,443.00
2019-02-23T06:18:45.840Z,440.17
2019-02-23T06:21:15.316Z,497.03
2019-02-23T06:23:44.775Z,500.10
2019-02-23T06:26:14.336Z,474.27
2019-02-23T06:28:43.775Z,536.33
2019-02-23T06:31:13.240Z,578.50
2019-02-23T06:33:42.707Z,554.70
2019-02-23T06:36:12.166Z,457.73
2019-02-23T06:38:41.540Z,483.97
2019-02-23T06:41:11.025Z,381.90
2019-02-23T06:43:40.385Z,447.80
2019-02-23T06:46:09.779Z,332.37
2019-02-23T06:48:39.193Z,352.40
2019-02-23T06:51:08.718Z,501.50
2019-02-23T06:53:38.157Z,333.37
2019-02-23T06:56:07.614Z,411.87
2019-02-23T06:58:37.026Z,445.77
2019-02-23T07:01:07.812Z,445.33
2019-02-23T07:03:37.277Z,308.50
2019-02-23T07:06:06.960Z,452.27
2019-02-23T07:08:55.730Z,523.53
2019-02-23T07:11:25.688Z,315.87
2019-02-23T07:13:55.812Z,377.17
2019-02-23T07:16:25.411Z,347.63
2019-02-23T07:18:54.831Z,361.40
2019-02-23T07:21:24.290Z,360.20
2019-02-23T07:23:53.663Z,337.70
2019-02-23T07:26:24.563Z,491.73
2019-02-23T07:28:54.045Z,418.27
2019-02-23T07:31:23.471Z,384.93
2019-02-23T07:33:57.558Z,381.73
2019-02-23T07:36:26.976Z,368.97
2019-02-23T07:38:56.395Z,386.53
2019-02-23T07:41:25.755Z,319.30
2019-02-23T07:43:55.163Z,314.90
2019-02-23T07:46:26.071Z,426.43
2019-02-23T07:48:55.434Z,513.07
2019-02-23T07:51:24.895Z,386.37
2019-02-23T07:53:54.258Z,427.83
2019-02-23T07:56:23.772Z,341.87
2019-02-23T07:58:58.377Z,372.30
2019-02-23T08:01:27.776Z,393.07
2019-02-23T08:03:57.222Z,270.43
2019-02-23T08:06:45.949Z,414.07
2019-02-23T08:09:15.423Z,385.13
2019-02-23T08:11:44.963Z,369.43
2019-02-23T08:14:14.428Z,257.73
2019-02-23T08:16:43.903Z,218.10
2019-02-23T08:19:13.303Z,204.77
2019-02-23T08:21:42.780Z,233.10
2019-02-23T08:24:12.243Z,258.57
2019-02-23T08:26:41.650Z,308.33
2019-02-23T08:29:11.142Z,259.73
2019-02-23T08:31:40.546Z,279.87
2019-02-23T08:34:10.118Z,298.10
2019-02-23T08:36:39.548Z,298.27
2019-02-23T08:39:08.958Z,272.83
2019-02-23T08:41:38.434Z,265.30
2019-02-23T08:44:07.881Z,254.70
2019-02-23T08:46:37.343Z,248.23
2019-02-23T08:49:06.736Z,239.17
2019-02-23T08:51:36.143Z,206.67
2019-02-23T08:54:05.580Z,162.47
2019-02-23T08:56:34.988Z,119.90
2019-02-23T08:59:04.516Z,114.57
2019-02-23T09:01:33.996Z,111.60
2019-02-23T09:04:03.476Z,112.43
2019-02-23T09:06:32.948Z,112.00
2019-02-23T09:09:02.485Z,99.00
2019-02-23T09:11:32.008Z,99.50
2019-02-23T09:14:01.411Z,100.20
2019-02-23T09:16:30.921Z,89.03
2019-02-23T09:19:00.298Z,77.50
2019-02-23T09:21:29.724Z,52.03
2019-02-23T09:23:59.239Z,39.80
2019-02-23T09:26:28.780Z,32.33
2019-02-23T09:28:58.209Z,32.93
2019-02-23T09:31:27.600Z,31.03
2019-02-23T09:33:57.043Z,30.43
2019-02-23T09:36:26.778Z,27.40
2019-02-23T09:38:56.282Z,28.10
2019-02-23T09:41:25.796Z,27.63
2019-02-23T09:43:55.307Z,28.47
2019-02-23T09:46:24.766Z,26.77
2019-02-23T09:48:56.327Z,28.03
2019-02-23T09:51:25.671Z,27.07
2019-02-23T09:53:55.035Z,28.07
2019-02-23T09:56:24.503Z,26.80
2019-02-23T09:58:53.859Z,25.97
2019-02-23T10:01:24.139Z,26.77
2019-02-23T10:03:53.503Z,26.33
2019-02-23T10:06:22.982Z,27.80
2019-02-23T10:08:52.342Z,25.77
2019-02-23T10:11:21.906Z,27.83
2019-02-23T10:13:51.330Z,25.33
2019-02-23T10:16:20.885Z,24.83
2019-02-23T10:18:50.374Z,25.17
2019-02-23T10:21:19.767Z,24.93
2019-02-23T10:23:49.200Z,23.60
2019-02-23T10:26:18.622Z,24.60
2019-02-23T10:28:47.990Z,22.67
2019-02-23T10:31:17.633Z,24.30
2019-02-23T10:33:47.913Z,23.87
2019-02-23T10:36:17.536Z,24.30
2019-02-23T10:38:46.960Z,24.70
2019-02-23T10:41:30.311Z,24.40
2019-02-23T10:44:12.628Z,22.53
2019-02-23T10:46:42.169Z,23.10
2019-02-23T10:49:11.580Z,23.67
2019-02-23T10:51:41.215Z,22.60
2019-02-23T10:54:10.736Z,22.77
2019-02-23T10:56:40.326Z,23.17
2019-02-23T10:59:09.903Z,21.10
2019-02-23T11:01:39.432Z,22.30
2019-02-23T11:04:08.993Z,22.57
2019-02-23T11:06:38.630Z,21.97
2019-02-23T11:09:10.124Z,21.83
2019-02-23T11:11:39.737Z,21.70
2019-02-23T11:14:09.242Z,22.07
2019-02-23T11:16:38.957Z,21.23
2019-02-23T11:19:08.467Z,21.20
2019-02-23T11:21:37.991Z,21.37
2019-02-23T11:24:07.543Z,19.73
2019-02-23T11:26:37.078Z,20.30
2019-02-23T11:29:06.690Z,19.77
2019-02-23T11:31:36.166Z,20.20
2019-02-23T11:34:05.910Z,20.07
2019-02-23T11:36:35.407Z,20.57
2019-02-23T11:39:05.626Z,18.90
2019-02-23T11:41:35.012Z,18.90
2019-02-23T11:44:04.524Z,19.27
2019-02-23T11:46:34.049Z,18.83
2019-02-23T11:49:03.434Z,18.40
2019-02-23T11:51:32.844Z,18.93
2019-02-23T11:54:02.363Z,18.23
2019-02-23T11:56:31.905Z,17.63
2019-02-23T11:59:01.678Z,17.80
2019-02-23T12:01:31.770Z,17.97
2019-02-23T12:04:01.301Z,17.67
2019-02-23T12:06:30.780Z,18.73
2019-02-23T12:09:01.061Z,18.47
2019-02-23T12:11:30.483Z,18.57
2019-02-23T12:13:59.887Z,18.10
2019-02-23T12:16:29.255Z,18.83
2019-02-23T12:18:58.723Z,18.23
2019-02-23T12:21:28.147Z,17.03
2019-02-23T12:24:05.754Z,17.70
2019-02-23T12:26:28.743Z,17.10
2019-02-23T12:28:58.152Z,17.23
2019-02-23T12:31:27.515Z,17.13
2019-02-23T12:33:58.068Z,17.30
2019-02-23T12:36:27.434Z,17.10
2019-02-23T12:38:56.839Z,17.73
2019-02-23T12:41:26.280Z,18.80
2019-02-23T12:43:55.672Z,18.40
2019-02-23T12:46:25.036Z,18.07
2019-02-23T12:48:54.551Z,18.10
2019-02-23T12:51:23.942Z,18.63
2019-02-23T12:53:54.911Z,18.40
2019-02-23T12:56:26.097Z,18.27
2019-02-23T12:58:55.681Z,17.17
2019-02-23T13:01:25.250Z,18.70
2019-02-23T13:03:54.784Z,17.93
2019-02-23T13:06:24.176Z,19.30
2019-02-23T13:09:19.307Z,16.33
2019-02-23T13:11:51.865Z,17.97
2019-02-23T13:14:42.156Z,18.10
2019-02-23T13:17:45.356Z,16.80
2019-02-23T13:20:44.780Z,18.20
2019-02-23T13:23:20.112Z,17.93
2019-02-23T13:25:55.116Z,18.27
2019-02-23T13:28:42.782Z,17.63
2019-02-23T13:31:18.005Z,16.73
2019-02-23T13:34:00.192Z,18.30
2019-02-23T13:36:41.656Z,17.07
2019-02-23T13:39:23.149Z,16.93
2019-02-23T13:42:24.331Z,17.40
2019-02-23T13:45:05.542Z,17.17
2019-02-23T13:47:41.031Z,17.33
2019-02-23T13:50:18.890Z,17.17
2019-02-23T13:53:08.392Z,17.43
2019-02-23T13:55:59.219Z,16.73
2019-02-23T13:58:37.497Z,16.77
2019-02-23T14:01:28.365Z,17.80
2019-02-23T14:04:31.360Z,17.47
2019-02-23T14:07:06.499Z,17.53
2019-02-23T14:09:55.786Z,16.57
2019-02-23T14:12:37.137Z,16.73
2019-02-23T14:15:21.592Z,17.20
2019-02-23T14:17:59.846Z,17.53
2019-02-23T14:20:44.211Z,18.10
2019-02-23T14:23:33.121Z,17.03
2019-02-23T14:26:40.500Z,17.97
2019-02-23T14:29:15.872Z,20.30
2019-02-23T14:32:03.647Z,16.33
2019-02-23T14:34:51.259Z,17.23
2019-02-23T14:37:35.943Z,16.37
2019-02-23T14:40:17.539Z,16.63
2019-02-23T14:43:06.829Z,16.73
2019-02-23T14:45:58.783Z,16.17
2019-02-23T14:48:46.408Z,17.97
2019-02-23T14:51:52.197Z,17.97
2019-02-23T14:54:30.322Z,18.37
2019-02-23T14:57:15.082Z,18.73
2019-02-23T15:00:04.123Z,19.87
2019-02-23T15:02:54.518Z,17.93
2019-02-23T15:05:29.585Z,20.63
2019-02-23T15:08:21.168Z,19.40
2019-02-23T15:10:59.277Z,19.03
2019-02-23T15:13:37.712Z,19.87
2019-02-23T15:16:17.072Z,18.80
2019-02-23T15:19:03.807Z,18.67
2019-02-23T15:21:39.247Z,18.93
2019-02-23T15:24:17.751Z,18.53
2019-02-23T15:26:50.329Z,18.27
2019-02-23T15:29:46.503Z,18.90
2019-02-23T15:32:24.716Z,19.73
2019-02-23T15:35:10.252Z,19.67
2019-02-23T15:37:51.902Z,20.33
2019-02-23T15:40:33.439Z,21.20
2019-02-23T15:43:37.791Z,19.53
2019-02-23T15:46:29.932Z,19.23
2019-02-23T15:49:30.367Z,18.93
2019-02-23T15:52:00.985Z,18.67
2019-02-23T15:54:30.642Z,21.03
2019-02-23T15:57:00.184Z,21.23
2019-02-23T15:59:29.731Z,20.23
2019-02-23T16:01:59.196Z,20.23
2019-02-23T16:04:28.752Z,20.70
2019-02-23T16:07:01.264Z,25.03
2019-02-23T16:09:30.706Z,19.87
2019-02-23T16:12:00.135Z,23.07
2019-02-23T16:14:29.655Z,22.30
2019-02-23T16:16:59.103Z,22.60
2019-02-23T16:19:28.499Z,23.27
2019-02-23T16:21:59.572Z,22.77
2019-02-23T16:24:28.964Z,24.50
2019-02-23T16:26:58.640Z,23.63
2019-02-23T16:29:28.080Z,27.90
2019-02-23T16:31:57.427Z,27.13
2019-02-23T16:34:26.816Z,30.80
2019-02-23T16:36:56.267Z,31.37
2019-02-23T16:39:25.640Z,26.27
2019-02-23T16:41:54.990Z,30.73
2019-02-23T16:44:24.394Z,28.50
2019-02-23T16:46:53.781Z,26.53
2019-02-23T16:49:23.227Z,24.63
2019-02-23T16:51:52.809Z,28.33
2019-02-23T16:54:22.293Z,26.17
2019-02-23T16:56:51.716Z,27.13
2019-02-23T16:59:21.199Z,25.67
2019-02-23T17:01:52.117Z,29.43
2019-02-23T17:04:21.545Z,27.40
2019-02-23T17:06:50.983Z,29.57
2019-02-23T17:09:20.521Z,28.60
2019-02-23T17:11:49.953Z,27.73
2019-02-23T17:14:20.886Z,31.03
2019-02-23T17:16:50.252Z,30.13
2019-02-23T17:19:19.751Z,29.97
2019-02-23T17:21:49.145Z,30.87
2019-02-23T17:24:18.536Z,28.87
2019-02-23T17:26:47.979Z,31.20
2019-02-23T17:29:17.416Z,33.03
2019-02-23T17:31:48.361Z,32.57
2019-02-23T17:34:17.888Z,32.80
2019-02-23T17:36:47.307Z,28.57
2019-02-23T17:39:16.704Z,29.50
2019-02-23T17:41:46.145Z,34.53
2019-02-23T17:44:15.659Z,27.13
2019-02-23T17:46:48.392Z,28.17
2019-02-23T17:49:16.389Z,31.37
2019-02-23T17:51:45.853Z,29.90
2019-02-23T17:54:15.401Z,28.43
2019-02-23T17:56:44.802Z,30.03
2019-02-23T17:59:14.271Z,29.67
2019-02-23T18:01:43.675Z,31.20
2019-02-23T18:04:13.104Z,30.87
2019-02-23T18:06:42.574Z,29.57
2019-02-23T18:09:11.959Z,28.13
2019-02-23T18:11:41.359Z,27.90
2019-02-23T18:14:10.774Z,32.93
2019-02-23T18:16:40.404Z,35.13
2019-02-23T18:19:09.903Z,30.97
2019-02-23T18:21:39.304Z,29.60
2019-02-23T18:24:08.825Z,29.00
2019-02-23T18:26:39.858Z,28.30
2019-02-23T18:29:09.231Z,28.83
2019-02-23T18:31:38.789Z,27.50
2019-02-23T18:34:08.418Z,32.97
2019-02-23T18:36:38.112Z,31.67
2019-02-23T18:39:09.104Z,30.43
2019-02-23T18:41:38.588Z,33.27
2019-02-23T18:44:07.957Z,31.13
2019-02-23T18:46:37.503Z,31.93
2019-02-23T18:49:06.979Z,31.23
2019-02-23T18:51:36.448Z,30.93
2019-02-23T18:54:07.380Z,30.93
2019-02-23T18:56:36.788Z,32.57
2019-02-23T18:59:06.239Z,29.43
2019-02-23T19:01:35.898Z,31.93
2019-02-23T19:04:05.324Z,32.17
2019-02-23T19:06:34.717Z,32.77
2019-02-23T19:09:05.274Z,31.37
2019-02-23T19:11:34.671Z,34.27
2019-02-23T19:14:04.167Z,32.63
2019-02-23T19:16:33.701Z,34.23
2019-02-23T19:19:03.120Z,34.07
2019-02-23T19:21:34.208Z,36.77
2019-02-23T19:24:03.643Z,35.00
2019-02-23T19:26:38.301Z,35.03
2019-02-23T19:29:04.384Z,34.60
2019-02-23T19:31:33.782Z,34.13
2019-02-23T19:34:03.223Z,37.73
2019-02-23T19:36:32.611Z,34.43
2019-02-23T19:39:02.041Z,36.30
2019-02-23T19:41:31.614Z,36.00
2019-02-23T19:44:01.039Z,33.30
2019-02-23T19:46:32.031Z,32.77
2019-02-23T19:49:01.953Z,35.77
2019-02-23T19:51:31.530Z,36.37
2019-02-23T19:54:00.956Z,34.43
2019-02-23T19:56:30.558Z,36.30
2019-02-23T19:58:59.932Z,33.83
2019-02-23T20:01:29.384Z,36.33
2019-02-23T20:04:00.470Z,35.43
2019-02-23T20:06:29.999Z,38.80
2019-02-23T20:08:59.431Z,38.43
2019-02-23T20:11:28.867Z,36.40
2019-02-23T20:13:58.232Z,39.30
2019-02-23T20:16:27.834Z,41.50
2019-02-23T20:18:57.201Z,37.93
2019-02-23T20:21:26.684Z,37.90
2019-02-23T20:23:56.168Z,39.50
2019-02-23T20:26:25.925Z,40.57
2019-02-23T20:28:55.275Z,38.17
2019-02-23T20:31:24.662Z,35.40
2019-02-23T20:33:54.135Z,38.23
2019-02-23T20:36:23.587Z,36.83
2019-02-23T20:38:53.011Z,34.77
2019-02-23T20:41:22.412Z,38.03
2019-02-23T20:43:51.967Z,37.60
2019-02-23T20:46:21.488Z,35.93
2019-02-23T20:48:50.910Z,36.77
2019-02-23T20:51:20.321Z,38.80
2019-02-23T20:53:49.833Z,39.40
2019-02-23T20:56:19.415Z,39.33
2019-02-23T20:58:48.765Z,38.13
2019-02-23T21:01:18.498Z,37.20
2019-02-23T21:03:48.075Z,38.57
2019-02-23T21:06:17.579Z,38.00
2019-02-23T21:08:47.017Z,37.27
2019-02-23T21:11:16.491Z,37.27
2019-02-23T21:13:45.876Z,40.33
2019-02-23T21:16:15.363Z,39.37
2019-02-23T21:18:44.826Z,38.27
2019-02-23T21:21:14.233Z,38.80
2019-02-23T21:23:45.386Z,38.43
2019-02-23T21:26:15.044Z,37.87
2019-02-23T21:28:44.600Z,38.20
2019-02-23T21:31:13.994Z,39.50
2019-02-23T21:33:43.574Z,36.10
2019-02-23T21:36:12.938Z,40.37
2019-02-23T21:38:42.561Z,37.87
2019-02-23T21:41:12.092Z,39.07
2019-02-23T21:43:43.071Z,44.50
2019-02-23T21:46:14.068Z,40.50
2019-02-23T21:48:43.463Z,44.77
2019-02-23T21:51:12.896Z,47.30
2019-02-23T21:53:42.347Z,46.60
2019-02-23T21:56:11.756Z,40.70
2019-02-23T21:58:41.240Z,41.40
2019-02-23T22:01:12.344Z,43.10
2019-02-23T22:03:41.868Z,41.00
2019-02-23T22:06:11.404Z,42.27
2019-02-23T22:08:41.138Z,45.87
2019-02-23T22:11:10.568Z,46.13
2019-02-23T22:13:40.235Z,45.70
2019-02-23T22:16:09.675Z,45.23
2019-02-23T22:18:39.342Z,44.50
2019-02-23T22:21:08.793Z,56.10
2019-02-23T22:23:38.266Z,43.87
2019-02-23T22:26:07.849Z,45.47
2019-02-23T22:28:37.312Z,47.07
2019-02-23T22:31:06.892Z,45.30
2019-02-23T22:33:36.363Z,44.60
2019-02-23T22:36:05.778Z,41.97
2019-02-23T22:38:35.213Z,40.87
2019-02-23T22:41:04.796Z,43.27
2019-02-23T22:43:34.311Z,45.37
2019-02-23T22:46:03.784Z,51.90
2019-02-23T22:48:33.207Z,54.87
2019-02-23T22:51:02.673Z,54.43
2019-02-23T22:53:32.066Z,49.30
2019-02-23T22:56:01.719Z,53.17
2019-02-23T22:58:31.307Z,52.33
2019-02-23T23:01:05.007Z,48.57
2019-02-23T23:03:34.395Z,43.70
2019-02-23T23:06:03.871Z,49.10
2019-02-23T23:08:33.482Z,49.07
2019-02-23T23:11:02.964Z,50.67
2019-02-23T23:13:33.999Z,50.23
2019-02-23T23:16:03.708Z,49.70
2019-02-23T23:18:34.596Z,51.77
2019-02-23T23:21:04.160Z,55.73
2019-02-23T23:23:34.007Z,47.50
2019-02-23T23:26:03.434Z,47.97
2019-02-23T23:28:32.836Z,47.37
2019-02-23T23:31:02.272Z,49.83
2019-02-23T23:33:31.695Z,47.13
2019-02-23T23:36:01.449Z,49.87
2019-02-23T23:38:43.599Z,42.70
2019-02-23T23:41:13.070Z,40.70
2019-02-23T23:43:43.339Z,38.87
2019-02-23T23:46:12.727Z,36.97
2019-02-23T23:48:42.191Z,40.73
2019-02-23T23:51:11.739Z,37.27
2019-02-23T23:53:41.472Z,37.50
2019-02-23T23:56:11.346Z,37.13
2019-02-23T23:58:40.831Z,35.47
